Terminal Aerodrome Forecast
Issued by NWS

Home | Current Version | Previous Version | Text Only | Print | Product List | Glossary On
Versions: 1 2 3 4 5 6 7 8 9 10 11 12 13 14
000
FTUS42 KMLB 162300
TAFLEE
TAF
KLEE 162333Z 1700/1724 28004KT P6SM FEW035 OVC150
     FM171400 28007KT P6SM VCSH FEW020 SCT120 BKN250
     FM171800 29008KT P6SM VCTS SCT040CB BKN100=

USA.gov is the U.S. government's official web portal to all federal, state and local government web resources and services.